Fine, New York
Current Conditions -  °F | °C
As of 4:34 AM on Sunday 26 Oct 2014 (Local Time) from KGTB Reporting Station
Drizzle Drizzle  
Wind Chill: 44°   Ceiling: 4500
Heat Index: 48°   Visibility: 10mi
Dew Point: 37°   Wind: 10mph
Humidity: 66%   Direction: 280°W
Pressure: 29.5"   Gusts: NA
Location:  44.25°N, 75.14°W
Report Text: KGTB 260834Z AUTO 28009KT 10SM -DZ OVC045 09/03 A2950 RMK AO2
Loading
Personal Weather Stations






























Interactive Weather Map
Tropical Storm Tracking
New forecast layout! Learn more

10-Day Weather Forecast

Advertisements
Track Severe Weather on mobile